Time;durP1;ratioP1;P1;durP2;ratioP2;P2;SDS_P1;SDS_P2;PMS_P1;PMS_P2;Temp;Humidity;BMP_temperature;BMP_pressure;BME280_temperature;BME280_humidity;BME280_pressure;Samples;Min_cycle;Max_cycle;Signal;HPM_P1;HPM_P2
2024/03/19 00:00:48;;;;;;;22.87;14.63;;;;;;;11.40;100.00;98341.50;4172973;28;20690;-87
2024/03/19 00:02:50;;;;;;;25.20;15.43;;;;;;;11.39;100.00;98342.44;4204742;28;20701;-87
2024/03/19 00:04:52;;;;;;;25.30;15.70;;;;;;;11.37;100.00;98344.34;4186079;28;20679;-87
2024/03/19 00:06:55;;;;;;;23.53;14.33;;;;;;;11.39;100.00;98339.84;4188379;28;20689;-87
2024/03/19 00:08:57;;;;;;;22.30;14.90;;;;;;;11.38;100.00;98340.75;4189589;28;20630;-88
2024/03/19 00:10:59;;;;;;;24.57;15.30;;;;;;;11.37;100.00;98339.09;4205918;28;20664;-87
2024/03/19 00:13:00;;;;;;;23.93;14.40;;;;;;;11.35;100.00;98331.38;4188452;28;20623;-85
2024/03/19 00:15:05;;;;;;;20.70;13.90;;;;;;;11.35;100.00;98348.81;4201939;28;20633;-87
2024/03/19 00:17:09;;;;;;;21.47;13.37;;;;;;;11.36;100.00;98340.03;4197228;28;20630;-87
2024/03/19 00:19:10;;;;;;;22.90;15.30;;;;;;;11.36;100.00;98343.47;4187033;28;20677;-87
2024/03/19 00:21:12;;;;;;;20.47;13.87;;;;;;;11.37;100.00;98349.56;4183527;28;20648;-87
2024/03/19 00:23:15;;;;;;;21.67;14.93;;;;;;;11.36;100.00;98346.09;4198152;28;21164;-87
2024/03/19 00:25:17;;;;;;;22.37;14.07;;;;;;;11.37;100.00;98339.94;4172371;28;20659;-88
2024/03/19 00:27:19;;;;;;;22.17;14.80;;;;;;;11.38;100.00;98351.19;4204169;28;20661;-87
2024/03/19 00:29:21;;;;;;;21.87;14.50;;;;;;;11.39;100.00;98343.28;4202336;28;20619;-87
2024/03/19 00:31:22;;;;;;;20.17;13.77;;;;;;;11.40;100.00;98349.34;4202645;28;21009;-82
2024/03/19 00:33:26;;;;;;;19.50;13.50;;;;;;;11.37;100.00;98360.81;4189330;28;20631;-82
2024/03/19 00:35:29;;;;;;;19.53;13.27;;;;;;;11.37;100.00;98344.34;4187630;28;20737;-82
2024/03/19 00:37:31;;;;;;;20.60;13.53;;;;;;;11.37;100.00;98344.34;4171277;28;20629;-82
2024/03/19 00:39:34;;;;;;;19.87;12.60;;;;;;;11.35;100.00;98338.34;4200172;28;21035;-82
2024/03/19 00:41:37;;;;;;;20.27;13.97;;;;;;;11.31;100.00;98329.91;4185647;28;20632;-81
2024/03/19 00:43:40;;;;;;;17.53;12.60;;;;;;;11.31;100.00;98332.50;4185315;28;20616;-82
2024/03/19 00:45:42;;;;;;;24.53;14.37;;;;;;;11.28;100.00;98340.56;4182421;28;20684;-82
2024/03/19 00:47:45;;;;;;;19.40;13.80;;;;;;;11.27;100.00;98340.66;4184657;28;20613;-81
2024/03/19 00:49:47;;;;;;;19.97;13.83;;;;;;;11.25;100.00;98339.09;4200676;28;20627;-82
2024/03/19 00:51:50;;;;;;;23.70;13.83;;;;;;;11.24;100.00;98338.25;4189104;28;20665;-82
2024/03/19 00:53:52;;;;;;;20.60;13.60;;;;;;;11.22;100.00;98337.53;4203453;28;20611;-83
2024/03/19 00:55:55;;;;;;;20.60;13.77;;;;;;;11.21;100.00;98341.06;4184390;28;21237;-82
2024/03/19 00:57:58;;;;;;;18.73;12.03;;;;;;;11.20;100.00;98339.41;4203587;28;20618;-80
2024/03/19 01:00:00;;;;;;;17.50;12.30;;;;;;;11.23;100.00;98348.78;4185758;28;20709;-80
2024/03/19 01:02:01;;;;;;;21.97;14.40;;;;;;;11.23;100.00;98344.44;4188868;28;20628;-80
2024/03/19 01:04:05;;;;;;;19.20;13.40;;;;;;;11.23;100.00;98336.59;4189688;28;20604;-80
2024/03/19 01:06:08;;;;;;;18.03;12.93;;;;;;;11.24;100.00;98346.09;4187164;28;20667;-80
2024/03/19 01:08:10;;;;;;;19.90;13.40;;;;;;;11.24;100.00;98343.47;4202714;28;20626;-81
2024/03/19 01:10:12;;;;;;;19.87;13.20;;;;;;;11.24;100.00;98342.66;4199812;28;21226;-80
2024/03/19 01:12:16;;;;;;;18.77;12.40;;;;;;;11.25;100.00;98342.53;4204096;28;20603;-81
2024/03/19 01:14:17;;;;;;;17.67;12.23;;;;;;;11.23;100.00;98341.81;4185529;28;20661;-80
2024/03/19 01:16:20;;;;;;;19.43;13.37;;;;;;;11.21;100.00;98337.63;4184574;28;21181;-81
2024/03/19 01:18:21;;;;;;;20.63;12.90;;;;;;;11.20;100.00;98339.41;4182481;28;20621;-80
2024/03/19 01:20:24;;;;;;;18.97;12.50;;;;;;;11.19;100.00;98335.13;4182174;28;20621;-80
2024/03/19 01:22:27;;;;;;;16.40;11.90;;;;;;;11.20;100.00;98338.56;4183357;28;20674;-80
2024/03/19 01:24:29;;;;;;;14.87;11.20;;;;;;;11.20;100.00;98328.13;4200152;28;20614;-81
2024/03/19 01:26:32;;;;;;;17.40;12.60;;;;;;;11.19;100.00;98324.69;4199469;28;20635;-80
2024/03/19 01:28:33;;;;;;;19.10;12.30;;;;;;;11.17;100.00;98323.94;4199798;28;21246;-80
2024/03/19 01:30:36;;;;;;;21.37;13.70;;;;;;;11.19;100.00;98321.25;4180366;28;20620;-81
2024/03/19 01:32:39;;;;;;;19.80;12.20;;;;;;;11.19;100.00;98324.69;4182967;28;20619;-80
2024/03/19 01:34:41;;;;;;;18.47;13.00;;;;;;;11.19;100.00;98326.47;4204217;28;20619;-80
2024/03/19 01:36:42;;;;;;;16.30;12.53;;;;;;;11.17;100.00;98321.34;4187942;28;20651;-80
2024/03/19 01:38:46;;;;;;;19.93;12.83;;;;;;;11.17;100.00;98315.25;4200099;28;20603;-80
2024/03/19 01:40:48;;;;;;;16.17;11.90;;;;;;;11.15;100.00;98314.53;4201161;28;21105;-86
2024/03/19 01:42:50;;;;;;;19.97;12.17;;;;;;;11.12;100.00;98322.56;4179826;28;20624;-86
2024/03/19 01:45:08;;;;;;;20.40;13.20;;;;;;;11.11;100.00;98316.53;4202807;28;20623;-85
2024/03/19 01:47:11;;;;;;;20.40;13.50;;;;;;;11.09;100.00;98318.38;4186319;28;21063;-85
2024/03/19 01:49:12;;;;;;;17.57;13.10;;;;;;;11.08;100.00;98311.50;4182251;28;20723;-86
2024/03/19 01:51:15;;;;;;;18.77;12.63;;;;;;;11.09;100.00;98313.16;4202065;28;21271;-86
2024/03/19 01:53:19;;;;;;;17.17;12.83;;;;;;;11.07;100.00;98309.00;4184043;28;20658;-86
2024/03/19 01:55:24;;;;;;;17.83;12.40;;;;;;;11.06;100.00;98318.59;4163487;28;21163;-86
2024/03/19 01:57:26;;;;;;;17.07;11.10;;;;;;;11.05;100.00;98314.31;4171752;28;20606;-86
2024/03/19 01:59:28;;;;;;;17.00;11.67;;;;;;;11.03;100.00;98316.19;4202160;28;20622;-86
2024/03/19 02:01:30;;;;;;;18.07;12.10;;;;;;;11.02;100.00;98309.31;4184651;28;20660;-86
2024/03/19 02:03:33;;;;;;;18.00;12.00;;;;;;;11.01;100.00;98319.84;4184826;28;21228;-85
2024/03/19 02:05:35;;;;;;;17.40;12.70;;;;;;;11.02;100.00;98322.38;4189699;28;20620;-85
2024/03/19 02:07:37;;;;;;;18.00;12.60;;;;;;;11.00;100.00;98318.16;4200360;28;20748;-85
2024/03/19 02:09:39;;;;;;;13.97;10.90;;;;;;;10.98;100.00;98323.50;4172577;28;20641;-86
2024/03/19 02:11:43;;;;;;;15.70;11.77;;;;;;;10.97;100.00;98320.97;4199988;28;20607;-86
2024/03/19 02:13:44;;;;;;;22.50;11.57;;;;;;;10.94;100.00;98311.56;4180363;28;21201;-86
2024/03/19 02:15:47;;;;;;;16.90;11.60;;;;;;;10.92;100.00;98313.47;4185294;28;21205;-83
2024/03/19 02:17:50;;;;;;;14.00;10.60;;;;;;;10.90;100.00;98314.50;4188023;28;21463;-86
2024/03/19 02:19:52;;;;;;;15.33;11.33;;;;;;;10.87;100.00;98302.50;4181867;28;20682;-85
2024/03/19 02:21:55;;;;;;;14.43;11.20;;;;;;;10.86;100.00;98302.59;4199467;28;20619;-86
2024/03/19 02:23:59;;;;;;;33.47;11.90;;;;;;;10.83;100.00;98295.78;4196344;28;20984;-85
2024/03/19 02:26:01;;;;;;;25.13;12.93;;;;;;;10.80;100.00;98296.97;4184003;28;20679;-86
2024/03/19 02:28:04;;;;;;;22.23;12.50;;;;;;;10.76;100.00;98291.09;4200508;28;20626;-86
2024/03/19 02:30:08;;;;;;;18.73;12.00;;;;;;;10.76;100.00;98290.25;4197728;28;20603;-86
2024/03/19 02:32:10;;;;;;;24.70;13.83;;;;;;;10.74;100.00;98284.31;4203236;28;20619;-85
2024/03/19 02:34:13;;;;;;;39.40;12.30;;;;;;;10.70;100.00;98280.22;4169698;28;20624;-85
2024/03/19 02:36:15;;;;;;;30.13;10.93;;;;;;;10.68;100.00;98282.09;4166816;28;20640;-85
2024/03/19 02:38:18;;;;;;;22.47;10.93;;;;;;;10.62;100.00;98272.91;4191010;28;20631;-88
2024/03/19 02:40:21;;;;;;;16.30;11.37;;;;;;;10.64;100.00;98278.03;4169445;28;20640;-87
2024/03/19 02:42:24;;;;;;;16.90;12.70;;;;;;;10.66;100.00;98282.22;4184035;28;20623;-88
2024/03/19 02:44:25;;;;;;;17.13;12.17;;;;;;;10.71;100.00;98280.13;4184979;28;20687;-87
2024/03/19 02:46:27;;;;;;;18.20;13.57;;;;;;;10.76;100.00;98285.88;4204353;28;20614;-88
2024/03/19 02:48:28;;;;;;;17.93;13.03;;;;;;;10.79;100.00;98290.88;4182941;28;20616;-85
2024/03/19 02:50:31;;;;;;;19.00;13.33;;;;;;;10.82;100.00;98281.09;4183228;28;20620;-88
2024/03/19 02:52:33;;;;;;;17.83;13.23;;;;;;;10.87;100.00;98293.84;4199385;28;20624;-88
2024/03/19 02:54:35;;;;;;;17.83;13.00;;;;;;;10.89;100.00;98284.13;4173410;28;20623;-86
2024/03/19 02:56:39;;;;;;;18.90;14.03;;;;;;;10.92;100.00;98282.16;4201520;28;20621;-88
2024/03/19 02:58:41;;;;;;;20.17;14.10;;;;;;;10.89;100.00;98287.56;4186918;28;21232;-86
2024/03/19 03:00:43;;;;;;;17.43;13.07;;;;;;;10.79;100.00;98288.28;4173764;28;20693;-88
2024/03/19 03:02:45;;;;;;;18.03;13.13;;;;;;;10.75;100.00;98288.56;4188726;28;20883;-86
2024/03/19 03:04:46;;;;;;;17.00;12.33;;;;;;;10.72;100.00;98281.81;4188537;28;20717;-87
2024/03/19 03:06:49;;;;;;;16.90;12.50;;;;;;;10.70;100.00;98282.84;4205462;28;20666;-88
2024/03/19 03:08:51;;;;;;;30.03;12.47;;;;;;;10.68;100.00;98285.53;4171446;28;20625;-89
2024/03/19 03:10:53;;;;;;;28.73;12.50;;;;;;;10.64;100.00;98291.06;4203361;28;20615;-88
2024/03/19 03:12:56;;;;;;;21.27;12.40;;;;;;;10.54;100.00;98287.38;4189800;28;20639;-87
2024/03/19 03:14:58;;;;;;;16.47;11.87;;;;;;;10.53;100.00;98291.75;4205318;28;20615;-87
2024/03/19 03:17:00;;;;;;;21.13;12.43;;;;;;;10.52;100.00;98287.47;4186689;28;20654;-88
2024/03/19 03:19:02;;;;;;;15.43;11.80;;;;;;;10.51;100.00;98296.25;4182718;28;20651;-86
2024/03/19 03:21:05;;;;;;;18.83;12.73;;;;;;;10.54;100.00;98289.97;4208510;28;20607;-88
2024/03/19 03:23:08;;;;;;;15.87;12.10;;;;;;;10.56;100.00;98291.56;4201739;28;20626;-88
2024/03/19 03:25:11;;;;;;;46.00;13.97;;;;;;;10.56;100.00;98303.78;4187396;28;21067;-87
2024/03/19 03:27:14;;;;;;;45.87;13.10;;;;;;;10.57;100.00;98305.41;4189192;28;20864;-86
2024/03/19 03:29:17;;;;;;;21.57;11.53;;;;;;;10.56;100.00;98307.19;4187493;28;20630;-87
2024/03/19 03:31:19;;;;;;;25.07;13.00;;;;;;;10.56;100.00;98303.78;4204037;28;20627;-88
2024/03/19 03:33:22;;;;;;;19.67;11.77;;;;;;;10.56;100.00;98306.38;4186767;28;20615;-88
2024/03/19 03:35:24;;;;;;;27.23;13.60;;;;;;;10.55;100.00;98305.53;4173953;28;21284;-87
2024/03/19 03:37:26;;;;;;;20.20;10.73;;;;;;;10.55;100.00;98309.91;4205881;28;20623;-87
2024/03/19 03:39:27;;;;;;;24.80;12.00;;;;;;;10.55;100.00;98307.31;4189377;28;20628;-88
2024/03/19 03:41:29;;;;;;;27.67;12.17;;;;;;;10.56;100.00;98308.97;4171449;28;20632;-88
2024/03/19 03:43:34;;;;;;;26.53;12.60;;;;;;;10.55;100.00;98304.69;4217069;28;20716;-88
2024/03/19 03:45:38;;;;;;;27.50;11.87;;;;;;;10.55;100.00;98305.53;4185647;28;20615;-86
2024/03/19 03:47:41;;;;;;;20.90;12.53;;;;;;;10.54;100.00;98306.47;4191380;28;21019;-88
2024/03/19 03:49:45;;;;;;;42.40;13.70;;;;;;;10.55;100.00;98309.91;4189246;28;21255;-88
2024/03/19 03:51:48;;;;;;;26.60;11.80;;;;;;;10.53;100.00;98309.19;4204451;28;20623;-89
2024/03/19 03:53:49;;;;;;;16.73;12.20;;;;;;;10.52;100.00;98310.09;4187131;28;20658;-88
2024/03/19 03:55:51;;;;;;;28.23;11.73;;;;;;;10.52;100.00;98312.72;4169405;28;20632;-88
2024/03/19 03:57:54;;;;;;;17.83;11.67;;;;;;;10.50;100.00;98317.19;4201909;28;21228;-88
2024/03/19 03:59:55;;;;;;;17.10;11.73;;;;;;;10.48;100.00;98316.47;4202561;28;20634;-88
2024/03/19 04:01:59;;;;;;;20.23;11.13;;;;;;;10.46;100.00;98313.09;4203315;28;21176;-82
2024/03/19 04:04:01;;;;;;;20.20;11.03;;;;;;;10.46;100.00;98326.16;4203526;28;20615;-82
2024/03/19 04:06:04;;;;;;;21.93;11.80;;;;;;;10.45;100.00;98316.66;4187551;28;20647;-83
2024/03/19 04:08:07;;;;;;;21.17;11.57;;;;;;;10.43;100.00;98315.91;4204442;28;20652;-82
2024/03/19 04:10:11;;;;;;;17.70;10.90;;;;;;;10.41;100.00;98323.00;4204081;28;20731;-82
2024/03/19 04:12:13;;;;;;;35.97;11.33;;;;;;;10.39;100.00;98330.09;4186860;28;20625;-82
2024/03/19 04:14:16;;;;;;;44.00;12.03;;;;;;;10.36;100.00;98325.06;4202583;28;20627;-81
2024/03/19 04:16:19;;;;;;;24.47;11.03;;;;;;;10.33;100.00;98317.44;4174125;28;20632;-82
2024/03/19 04:18:21;;;;;;;27.43;10.50;;;;;;;10.31;100.00;98318.47;4186861;28;21876;-82
2024/03/19 04:20:24;;;;;;;31.57;10.40;;;;;;;10.26;100.00;98316.16;4200620;28;20628;-82
2024/03/19 04:22:25;;;;;;;42.37;11.37;;;;;;;10.24;100.00;98328.47;4187718;28;21017;-83
2024/03/19 04:24:27;;;;;;;29.03;10.90;;;;;;;10.21;100.00;98331.25;4204720;28;20619;-83
2024/03/19 04:26:30;;;;;;;21.00;9.80;;;;;;;10.18;100.00;98331.44;4202741;28;20627;-82
2024/03/19 04:28:32;;;;;;;28.33;10.93;;;;;;;10.17;100.00;98329.78;4184431;28;21049;-82
2024/03/19 04:30:35;;;;;;;27.60;10.87;;;;;;;10.16;100.00;98327.25;4187895;28;20758;-82
2024/03/19 04:32:36;;;;;;;34.77;10.83;;;;;;;10.14;100.00;98331.75;4187864;28;20623;-82
2024/03/19 04:34:41;;;;;;;24.57;10.10;;;;;;;10.12;100.00;98329.22;4185003;28;20615;-82
2024/03/19 04:36:42;;;;;;;28.37;10.13;;;;;;;10.14;100.00;98340.38;4201996;28;20626;-81
2024/03/19 04:38:44;;;;;;;19.07;10.50;;;;;;;10.15;100.00;98339.47;4184504;28;20620;-82
2024/03/19 04:40:46;;;;;;;21.40;10.00;;;;;;;10.17;100.00;98339.38;4182903;28;21118;-82
2024/03/19 04:42:48;;;;;;;15.43;9.47;;;;;;;10.18;100.00;98339.28;4187840;28;20613;-82
2024/03/19 04:44:50;;;;;;;26.87;10.50;;;;;;;10.19;100.00;98345.31;4183757;28;21201;-82
2024/03/19 04:46:53;;;;;;;25.30;10.13;;;;;;;10.20;100.00;98339.19;4184223;28;20628;-82
2024/03/19 04:48:55;;;;;;;21.33;10.03;;;;;;;10.20;100.00;98340.00;4203796;28;21178;-81
2024/03/19 04:50:59;;;;;;;18.97;11.40;;;;;;;10.23;100.00;98346.81;4201508;28;20686;-82
2024/03/19 04:53:01;;;;;;;19.33;9.67;;;;;;;10.24;100.00;98345.84;4200912;28;21226;-82
2024/03/19 04:55:03;;;;;;;21.23;9.63;;;;;;;10.22;100.00;98343.34;4183961;28;20647;-81
2024/03/19 04:57:05;;;;;;;23.43;9.50;;;;;;;10.19;100.00;98343.53;4182813;28;20631;-82
2024/03/19 04:59:08;;;;;;;27.20;9.90;;;;;;;10.17;100.00;98339.38;4187530;28;20666;-82
2024/03/19 05:01:13;;;;;;;22.17;10.17;;;;;;;10.14;100.00;98324.75;4187426;28;20612;-82
2024/03/19 05:03:14;;;;;;;29.53;10.20;;;;;;;10.14;100.00;98324.75;4200530;28;20616;-81
2024/03/19 05:05:17;;;;;;;22.70;10.57;;;;;;;10.16;100.00;98333.28;4199983;28;20620;-82
2024/03/19 05:07:20;;;;;;;33.57;11.70;;;;;;;10.17;100.00;98328.94;4198137;28;20670;-83
2024/03/19 05:09:22;;;;;;;30.93;10.43;;;;;;;10.14;100.00;98322.13;4186792;28;20634;-82
2024/03/19 05:11:25;;;;;;;23.03;9.03;;;;;;;10.07;100.00;98323.47;4202766;28;20623;-89
2024/03/19 05:13:27;;;;;;;17.20;9.70;;;;;;;10.02;100.00;98324.69;4169945;28;20628;-88
2024/03/19 05:15:30;;;;;;;16.63;9.33;;;;;;;9.97;100.00;98324.97;4185862;28;21006;-88
2024/03/19 05:17:32;;;;;;;17.83;9.77;;;;;;;9.95;100.00;98323.38;4169072;28;20614;-88
2024/03/19 05:19:34;;;;;;;16.03;9.27;;;;;;;9.94;100.00;98316.53;4204017;28;20627;-88
2024/03/19 05:21:40;;;;;;;18.63;10.10;;;;;;;9.93;100.00;98320.88;4202736;28;20611;-85
2024/03/19 05:23:43;;;;;;;16.60;9.10;;;;;;;9.94;100.00;98322.56;4199194;28;20604;-87
2024/03/19 05:25:46;;;;;;;18.53;9.67;;;;;;;9.93;100.00;98315.66;4184504;28;20634;-88
2024/03/19 05:27:48;;;;;;;19.87;9.50;;;;;;;9.92;100.00;98327.00;4186229;28;20636;-88
2024/03/19 05:29:50;;;;;;;19.63;10.17;;;;;;;9.89;100.00;98321.13;4185817;28;21241;-87
2024/03/19 05:31:53;;;;;;;16.47;9.90;;;;;;;9.87;100.00;98321.22;4184091;28;21005;-88
2024/03/19 05:33:56;;;;;;;22.57;9.97;;;;;;;9.87;100.00;98321.22;4171318;28;20624;-88
2024/03/19 05:35:58;;;;;;;23.60;9.67;;;;;;;9.88;100.00;98333.31;4183084;28;20627;-88
2024/03/19 05:38:01;;;;;;;24.07;10.20;;;;;;;9.88;100.00;98333.31;4183002;28;20916;-88
2024/03/19 05:40:06;;;;;;;35.60;10.27;;;;;;;9.90;100.00;98338.44;4183359;28;20727;-87
2024/03/19 05:42:07;;;;;;;21.13;9.33;;;;;;;9.88;100.00;98341.13;4170725;28;20683;-88
2024/03/19 05:44:10;;;;;;;20.47;10.07;;;;;;;9.87;100.00;98336.84;4202103;28;20638;-89
2024/03/19 05:46:11;;;;;;;23.13;10.07;;;;;;;9.86;100.00;98335.19;4182873;28;20636;-87
2024/03/19 05:48:13;;;;;;;21.80;10.33;;;;;;;9.85;100.00;98343.09;4203676;28;20643;-89
2024/03/19 05:50:16;;;;;;;16.40;9.23;;;;;;;9.82;100.00;98339.81;4185796;28;20763;-89
2024/03/19 05:52:18;;;;;;;19.70;11.37;;;;;;;9.79;100.00;98345.22;4184842;28;20715;-88
2024/03/19 05:54:21;;;;;;;31.20;11.40;;;;;;;9.79;100.00;98337.41;4182222;28;20620;-89
2024/03/19 05:56:23;;;;;;;23.83;11.10;;;;;;;9.79;100.00;98347.81;4183910;28;20620;-87
2024/03/19 05:58:26;;;;;;;24.17;12.30;;;;;;;9.78;100.00;98340.97;4182791;28;20693;-87
2024/03/19 06:00:28;;;;;;;24.60;10.30;;;;;;;9.76;100.00;98346.25;4171204;28;20667;-88
2024/03/19 06:02:29;;;;;;;18.53;13.10;;;;;;;9.75;100.00;98341.97;4169326;28;20686;-88
2024/03/19 06:04:32;;;;;;;21.35;10.18;;;;;;;9.73;100.00;98346.47;4167591;28;20633;-88
2024/03/19 06:06:34;;;;;;;12.90;8.50;;;;;;;9.69;100.00;98347.56;4182391;28;20253;-88
2024/03/19 06:08:36;;;;;;;13.93;8.93;;;;;;;9.67;100.00;98348.59;4164261;28;20660;-87
2024/03/19 06:10:39;;;;;;;16.07;9.80;;;;;;;9.68;100.00;98347.66;4202669;28;20820;-86
2024/03/19 06:12:43;;;;;;;17.13;9.30;;;;;;;9.72;100.00;98352.59;4181665;28;20632;-86
2024/03/19 06:14:45;;;;;;;19.87;9.93;;;;;;;9.76;100.00;98351.47;4186187;28;21112;-87
2024/03/19 06:16:47;;;;;;;15.43;9.17;;;;;;;9.78;100.00;98352.22;4184388;28;20620;-87
2024/03/19 06:18:49;;;;;;;17.08;11.10;;;;;;;9.79;100.00;98350.44;4201999;28;20619;-88
2024/03/19 06:20:51;;;;;;;18.30;11.97;;;;;;;9.82;100.00;98360.66;4186667;28;20605;-88
2024/03/19 06:22:53;;;;;;;22.10;10.60;;;;;;;9.85;100.00;98356.94;4179831;28;21217;-87
2024/03/19 06:24:55;;;;;;;20.97;12.17;;;;;;;9.91;100.00;98367.00;4188967;28;20983;-91
2024/03/19 06:26:58;;;;;;;26.97;10.50;;;;;;;9.98;100.00;98365.75;4174613;28;20698;-87
2024/03/19 06:29:03;;;;;;;23.33;9.37;;;;;;;10.06;100.00;98367.88;4190849;28;20652;-89
2024/03/19 06:31:06;;;;;;;23.90;11.60;;;;;;;10.15;100.00;98373.34;4205215;28;21175;-88
2024/03/19 06:33:08;;;;;;;32.67;12.80;;;;;;;10.24;100.00;98377.13;4193444;28;20620;-86
2024/03/19 06:35:10;;;;;;;19.57;13.40;;;;;;;10.30;100.00;98377.59;4207546;28;20623;-87
2024/03/19 06:37:12;;;;;;;23.97;12.93;;;;;;;10.36;100.00;98372.81;4192511;28;20621;-86
2024/03/19 06:39:16;;;;;;;27.40;11.80;;;;;;;10.40;100.00;98381.28;4206038;28;21261;-87
2024/03/19 06:41:18;;;;;;;28.33;10.27;;;;;;;10.47;100.00;98374.75;4189243;28;20623;-86
2024/03/19 06:43:21;;;;;;;22.30;10.33;;;;;;;10.53;100.00;98380.41;4176229;28;20635;-87
2024/03/19 06:45:23;;;;;;;26.77;9.00;;;;;;;10.62;100.00;98384.22;4192824;28;20650;-87
2024/03/19 06:47:25;;;;;;;21.77;9.90;;;;;;;10.69;100.00;98386.34;4200522;28;20638;-85
2024/03/19 06:49:27;;;;;;;18.53;8.93;;;;;;;10.75;100.00;98390.31;4190261;28;21009;-88
2024/03/19 06:51:29;;;;;;;25.27;10.87;;;;;;;10.83;100.00;98387.13;4193598;28;20624;-87
2024/03/19 06:53:32;;;;;;;17.90;9.50;;;;;;;10.90;100.00;98392.78;4183169;28;20616;-84
2024/03/19 06:55:34;;;;;;;16.53;8.80;;;;;;;11.01;100.00;98396.38;4184761;28;20617;-86
2024/03/19 06:57:36;;;;;;;16.97;10.03;;;;;;;11.13;100.00;98398.16;4191079;28;20689;-87
2024/03/19 06:59:37;;;;;;;28.40;9.90;;;;;;;11.21;100.00;98401.09;4187218;28;21206;-87
2024/03/19 07:01:41;;;;;;;18.40;9.47;;;;;;;11.28;100.00;98402.38;4205277;28;21194;-90
2024/03/19 07:03:43;;;;;;;16.10;8.80;;;;;;;11.39;100.00;98405.94;4204042;28;20622;-90
2024/03/19 07:05:45;;;;;;;15.90;10.00;;;;;;;11.55;100.00;98411.03;4202478;28;20735;-89
2024/03/19 07:07:48;;;;;;;13.30;9.63;;;;;;;11.65;100.00;98417.28;4174404;28;20616;-91
2024/03/19 07:09:53;;;;;;;20.17;10.20;;;;;;;11.73;100.00;98413.25;4206421;28;20972;-91
2024/03/19 07:11:55;;;;;;;18.90;9.57;;;;;;;11.76;100.00;98418.25;4172785;28;20628;-90
2024/03/19 07:13:58;;;;;;;15.83;9.60;;;;;;;11.87;100.00;98418.34;4203735;28;20661;-89
2024/03/19 07:16:00;;;;;;;15.93;10.43;;;;;;;11.97;100.00;98422.84;4190314;28;20662;-89
2024/03/19 07:18:08;;;;;;;18.40;10.57;;;;;;;12.04;100.00;98421.50;4182181;28;21083;-88
2024/03/19 07:20:12;;;;;;;20.30;9.90;;;;;;;12.13;100.00;98420.00;4188371;28;21180;-89
2024/03/19 07:22:14;;;;;;;18.20;10.80;;;;;;;12.22;100.00;98427.22;4200845;28;20631;-90
2024/03/19 07:24:16;;;;;;;13.03;9.40;;;;;;;12.26;99.11;98432.13;4201764;28;20706;-89
2024/03/19 07:26:20;;;;;;;25.87;10.43;;;;;;;12.33;100.00;98433.41;4184872;28;20707;-89
2024/03/19 07:28:22;;;;;;;15.43;10.73;;;;;;;12.40;100.00;98432.00;4166998;28;20637;-88
2024/03/19 07:30:24;;;;;;;28.23;11.97;;;;;;;12.48;100.00;98432.28;4204321;28;20618;-86
2024/03/19 07:32:26;;;;;;;24.37;13.50;;;;;;;12.58;99.35;98433.31;4203597;28;20701;-81
2024/03/19 07:34:30;;;;;;;71.23;14.07;;;;;;;12.61;99.86;98430.50;4173751;28;21069;-82
2024/03/19 07:36:31;;;;;;;28.10;15.10;;;;;;;12.69;100.00;98432.47;4202328;28;21315;-81
2024/03/19 07:38:33;;;;;;;21.50;14.30;;;;;;;12.81;99.60;98431.59;4191897;28;20624;-83
2024/03/19 07:40:36;;;;;;;16.93;11.70;;;;;;;12.96;100.00;98435.75;4192099;28;20632;-84
2024/03/19 07:42:37;;;;;;;18.00;11.33;;;;;;;13.10;99.75;98440.81;4185396;28;21474;-82
2024/03/19 07:44:39;;;;;;;21.63;12.27;;;;;;;13.35;100.00;98443.31;4183181;28;20746;-80
2024/03/19 07:46:42;;;;;;;19.50;12.27;;;;;;;13.62;100.00;98439.50;4185424;28;20572;-81
2024/03/19 07:48:44;;;;;;;22.23;14.23;;;;;;;13.84;99.23;98450.03;4204963;28;20657;-81
2024/03/19 07:50:49;;;;;;;20.40;13.70;;;;;;;14.12;99.73;98454.84;4202799;28;21229;-82
2024/03/19 07:52:51;;;;;;;17.60;12.97;;;;;;;14.34;97.33;98458.34;4205234;28;20638;-81
2024/03/19 07:54:53;;;;;;;17.97;13.20;;;;;;;14.54;98.32;98460.25;4189036;28;20640;-81
2024/03/19 07:56:56;;;;;;;22.10;14.90;;;;;;;14.81;96.92;98466.81;4187191;28;20739;-82
2024/03/19 07:58:57;;;;;;;20.23;14.50;;;;;;;15.03;96.36;98459.72;4190013;28;20604;-81
2024/03/19 08:00:59;;;;;;;23.33;16.40;;;;;;;15.24;95.00;98458.00;4184394;28;20620;-82
2024/03/19 08:03:01;;;;;;;22.87;17.03;;;;;;;15.35;93.82;98460.59;4185785;28;21363;-82
2024/03/19 08:05:03;;;;;;;21.20;14.93;;;;;;;15.50;93.98;98451.47;4189247;28;20621;-82
2024/03/19 08:07:07;;;;;;;19.90;14.37;;;;;;;15.78;93.25;98463.03;4203456;28;21287;-81
2024/03/19 08:09:10;;;;;;;28.97;20.20;;;;;;;16.01;93.13;98474.28;4206886;28;20947;-81
2024/03/19 08:11:12;;;;;;;21.20;16.10;;;;;;;16.22;91.35;98473.31;4186650;28;20608;-82
2024/03/19 08:13:14;;;;;;;20.37;14.73;;;;;;;16.30;90.74;98470.91;4196635;28;20625;-82
2024/03/19 08:15:17;;;;;;;18.17;13.43;;;;;;;16.09;90.98;98462.97;4190234;28;20622;-81
2024/03/19 08:17:18;;;;;;;17.40;13.33;;;;;;;16.10;91.32;98469.06;4171670;28;20740;-81
2024/03/19 08:19:20;;;;;;;16.00;12.30;;;;;;;16.22;92.70;98470.69;4202200;28;20652;-81
2024/03/19 08:21:23;;;;;;;15.23;11.43;;;;;;;16.36;91.54;98468.56;4203367;28;21202;-82
2024/03/19 08:23:26;;;;;;;15.13;11.03;;;;;;;16.28;88.82;98471.03;4199833;28;20623;-82
2024/03/19 08:25:29;;;;;;;14.80;10.83;;;;;;;16.18;89.12;98472.72;4185004;28;20672;-82
2024/03/19 08:27:31;;;;;;;17.50;12.27;;;;;;;16.17;87.34;98478.13;4204303;28;20621;-82
2024/03/19 08:29:34;;;;;;;14.80;10.77;;;;;;;16.08;87.74;98463.09;4187445;28;20685;-82
2024/03/19 08:31:37;;;;;;;10.80;9.37;;;;;;;16.08;87.08;98463.94;4188978;28;20785;-83
2024/03/19 08:33:39;;;;;;;12.17;9.10;;;;;;;16.18;87.79;98464.84;4186650;28;20618;-83
2024/03/19 08:35:41;;;;;;;12.03;8.43;;;;;;;16.15;86.53;98470.34;4182157;28;20712;-87
2024/03/19 08:37:46;;;;;;;7.90;6.73;;;;;;;16.13;85.93;98474.06;4201969;28;20623;-83
2024/03/19 08:39:49;;;;;;;11.97;9.67;;;;;;;16.15;86.30;98475.63;4182629;28;20677;-86
2024/03/19 08:41:51;;;;;;;10.27;8.40;;;;;;;16.26;88.14;98480.84;4188721;28;20631;-89
2024/03/19 08:43:56;;;;;;;10.03;8.03;;;;;;;16.27;87.12;98479.88;4199906;28;20617;-89
2024/03/19 08:45:57;;;;;;;10.37;8.20;;;;;;;16.14;84.22;98479.22;4183773;28;20622;-89
2024/03/19 08:47:59;;;;;;;8.47;7.43;;;;;;;16.07;85.37;98472.81;4202444;28;20622;-89
2024/03/19 08:50:02;;;;;;;9.77;7.70;;;;;;;16.01;85.02;98464.56;4170707;28;20651;-88
2024/03/19 08:52:06;;;;;;;9.50;7.57;;;;;;;16.10;84.83;98476.97;4184151;28;21199;-88
2024/03/19 08:54:08;;;;;;;8.40;7.10;;;;;;;16.23;84.23;98473.19;4196507;28;20645;-89
2024/03/19 08:56:12;;;;;;;11.10;6.97;;;;;;;16.33;84.32;98481.19;4187182;28;20637;-90
2024/03/19 08:58:14;;;;;;;8.80;7.10;;;;;;;16.45;85.55;98473.06;4182018;28;20626;-90
2024/03/19 09:00:17;;;;;;;8.27;6.70;;;;;;;16.54;83.38;98475.72;4203317;28;21001;-91
2024/03/19 09:02:19;;;;;;;9.30;6.37;;;;;;;16.70;83.74;98478.72;4188521;28;20681;-87
2024/03/19 09:04:21;;;;;;;8.20;6.97;;;;;;;16.78;84.58;98480.66;4167940;28;20696;-89
2024/03/19 09:06:23;;;;;;;8.67;6.67;;;;;;;16.99;84.04;98482.28;4187742;28;21297;-87
2024/03/19 09:08:31;;;;;;;8.20;6.23;;;;;;;17.16;83.12;98477.19;4217240;27;21221;-89
2024/03/19 09:10:40;;;;;;;9.53;7.40;;;;;;;17.31;83.59;98482.94;4205676;28;20927;-90
2024/03/19 09:12:45;;;;;;;9.67;7.37;;;;;;;17.36;83.08;98475.44;4185337;28;20635;-89
2024/03/19 09:14:47;;;;;;;9.77;7.00;;;;;;;17.29;81.76;98477.81;4173006;28;20690;-89
2024/03/19 09:16:49;;;;;;;10.63;7.77;;;;;;;17.37;83.06;98472.66;4201070;28;22668;-88
2024/03/19 09:18:52;;;;;;;8.93;6.73;;;;;;;17.30;81.13;98474.19;4173844;28;20625;-89
2024/03/19 09:20:54;;;;;;;8.23;6.67;;;;;;;17.21;81.07;98467.09;4185520;28;21219;-90